createdAt,value
2023-02-06T00:00:28.469Z,100588.00
2023-02-06T00:03:16.781Z,100583.00
2023-02-06T00:06:04.490Z,100587.00
2023-02-06T00:08:52.292Z,100579.00
2023-02-06T00:11:40.141Z,100590.00
2023-02-06T00:14:27.778Z,100582.00
2023-02-06T00:17:15.808Z,100593.00
2023-02-06T00:20:06.132Z,100598.00
2023-02-06T00:22:53.823Z,100606.00
2023-02-06T00:25:41.741Z,100596.00
2023-02-06T00:28:29.425Z,100591.00
2023-02-06T00:31:17.543Z,100608.00
2023-02-06T00:34:05.414Z,100609.00
2023-02-06T00:36:53.123Z,100605.00
2023-02-06T00:39:41.268Z,100601.00
2023-02-06T00:42:28.986Z,100612.00
2023-02-06T00:45:17.116Z,100611.00
2023-02-06T00:48:05.122Z,100603.00
2023-02-06T00:50:54.693Z,100617.00
2023-02-06T00:53:42.697Z,100623.00
2023-02-06T00:56:30.543Z,100619.00
2023-02-06T00:59:18.462Z,100626.00
2023-02-06T01:02:05.970Z,100623.00
2023-02-06T01:04:54.069Z,100620.00
2023-02-06T01:07:42.053Z,100619.00
2023-02-06T01:10:30.044Z,100623.00
2023-02-06T01:13:18.051Z,100608.00
2023-02-06T01:16:11.110Z,100593.00
2023-02-06T01:18:58.891Z,100590.00
2023-02-06T01:21:46.675Z,100601.00
2023-02-06T01:24:36.799Z,100594.00
2023-02-06T01:27:24.793Z,100604.00
2023-02-06T01:30:13.580Z,100603.00
2023-02-06T01:33:01.740Z,100594.00
2023-02-06T01:35:59.333Z,100610.00
2023-02-06T01:38:48.831Z,100612.00
2023-02-06T01:41:36.607Z,100609.00
2023-02-06T01:44:26.573Z,100598.00
2023-02-06T01:47:14.538Z,100608.00
2023-02-06T01:50:03.033Z,100601.00
2023-02-06T01:52:51.495Z,100601.00
2023-02-06T01:55:42.129Z,100604.00
2023-02-06T01:58:43.885Z,100600.00
2023-02-06T02:01:33.700Z,100610.00
2023-02-06T02:04:26.108Z,100603.00
2023-02-06T02:07:36.539Z,100602.00
2023-02-06T02:10:24.112Z,100604.00
2023-02-06T02:13:12.306Z,100598.00
2023-02-06T02:16:36.148Z,100600.00
2023-02-06T02:20:02.292Z,100596.00
2023-02-06T02:23:17.444Z,100594.00
2023-02-06T02:26:35.215Z,100604.00
2023-02-06T02:30:13.736Z,100602.00
2023-02-06T02:33:55.170Z,100602.00
2023-02-06T02:37:11.236Z,100613.00
2023-02-06T02:40:31.337Z,100604.00
2023-02-06T02:43:45.349Z,100598.00
2023-02-06T02:46:40.932Z,100599.00
2023-02-06T02:49:33.160Z,100601.00
2023-02-06T02:52:20.783Z,100595.00
2023-02-06T02:55:22.609Z,100613.00
2023-02-06T02:58:22.941Z,100608.00
2023-02-06T03:01:19.661Z,100603.00
2023-02-06T03:04:24.064Z,100607.00
2023-02-06T03:08:03.095Z,100605.00
2023-02-06T03:11:27.258Z,100614.00
2023-02-06T03:14:46.051Z,100622.00
2023-02-06T03:18:18.789Z,100614.00
2023-02-06T03:21:12.131Z,100604.00
2023-02-06T03:24:08.333Z,100619.00
2023-02-06T03:27:04.225Z,100621.00
2023-02-06T03:29:55.048Z,100622.00
2023-02-06T03:32:50.499Z,100640.00
2023-02-06T03:35:40.170Z,100628.00
2023-02-06T03:38:28.467Z,100631.00
2023-02-06T03:41:19.020Z,100631.00
2023-02-06T03:44:15.311Z,100628.00
2023-02-06T03:47:07.694Z,100625.00
2023-02-06T03:50:01.898Z,100624.00
2023-02-06T03:52:51.941Z,100633.00
2023-02-06T03:55:43.398Z,100634.00
2023-02-06T03:58:31.345Z,100634.00
2023-02-06T04:01:20.368Z,100633.00
2023-02-06T04:04:08.290Z,100628.00
2023-02-06T04:07:04.721Z,100628.00
2023-02-06T04:09:52.968Z,100622.00
2023-02-06T04:12:40.718Z,100624.00
2023-02-06T04:15:28.620Z,100622.00
2023-02-06T04:18:16.654Z,100612.00
2023-02-06T04:21:08.043Z,100619.00
2023-02-06T04:23:55.813Z,100628.00
2023-02-06T04:26:43.494Z,100625.00
2023-02-06T04:29:31.502Z,100618.00
2023-02-06T04:32:19.346Z,100615.00
2023-02-06T04:35:07.816Z,100602.00
2023-02-06T04:37:55.722Z,100608.00
2023-02-06T04:40:43.910Z,100602.00
2023-02-06T04:43:33.241Z,100602.00
2023-02-06T04:46:21.040Z,100608.00
2023-02-06T04:49:08.710Z,100591.00
2023-02-06T04:51:56.586Z,100591.00
2023-02-06T04:54:44.547Z,100588.00
2023-02-06T04:57:32.468Z,100582.00
2023-02-06T05:00:20.465Z,100589.00
2023-02-06T05:03:08.450Z,100593.00
2023-02-06T05:06:00.436Z,100604.00
2023-02-06T05:08:48.640Z,100590.00
2023-02-06T05:11:36.630Z,100586.00
2023-02-06T05:14:24.271Z,100577.00
2023-02-06T05:17:11.990Z,100571.00
2023-02-06T05:20:00.342Z,100571.00
2023-02-06T05:22:48.314Z,100582.00
2023-02-06T05:25:37.149Z,100583.00
2023-02-06T05:28:26.033Z,100577.00
2023-02-06T05:31:19.806Z,100582.00
2023-02-06T05:34:09.294Z,100583.00
2023-02-06T05:36:57.275Z,100581.00
2023-02-06T05:39:44.937Z,100571.00
2023-02-06T05:42:33.184Z,100572.00
2023-02-06T05:45:20.766Z,100569.00
2023-02-06T05:48:08.462Z,100567.00
2023-02-06T05:50:57.986Z,100577.00
2023-02-06T05:53:45.914Z,100588.00
2023-02-06T05:56:33.894Z,100582.00
2023-02-06T05:59:21.894Z,100575.00
2023-02-06T06:02:09.394Z,100583.00
2023-02-06T06:04:57.306Z,100588.00
2023-02-06T06:07:45.096Z,100578.00
2023-02-06T06:10:33.186Z,100597.00
2023-02-06T06:13:20.882Z,100581.00
2023-02-06T06:16:08.466Z,100587.00
2023-02-06T06:18:56.518Z,100582.00
2023-02-06T06:21:44.116Z,100579.00
2023-02-06T06:24:32.322Z,100579.00
2023-02-06T06:27:20.298Z,100593.00
2023-02-06T06:30:09.253Z,100591.00
2023-02-06T06:32:57.255Z,100602.00
2023-02-06T06:35:45.336Z,100590.00
2023-02-06T06:38:33.017Z,100599.00
2023-02-06T06:41:20.562Z,100592.00
2023-02-06T06:44:08.473Z,100589.00
2023-02-06T06:46:56.300Z,100586.00
2023-02-06T06:49:43.830Z,100596.00
2023-02-06T06:52:31.676Z,100586.00
2023-02-06T06:55:19.824Z,100592.00
2023-02-06T06:58:07.565Z,100587.00
2023-02-06T07:00:55.691Z,100583.00
2023-02-06T07:03:44.393Z,100574.00
2023-02-06T07:06:32.323Z,100581.00
2023-02-06T07:09:19.866Z,100579.00
2023-02-06T07:12:07.734Z,100572.00
2023-02-06T07:14:55.660Z,100571.00
2023-02-06T07:17:43.354Z,100574.00
2023-02-06T07:20:33.908Z,100572.00
2023-02-06T07:23:21.594Z,100574.00
2023-02-06T07:26:09.137Z,100573.00
2023-02-06T07:28:57.576Z,100591.00
2023-02-06T07:31:45.638Z,100586.00
2023-02-06T07:34:33.572Z,100580.00
2023-02-06T07:37:21.092Z,100565.00
2023-02-06T07:40:09.748Z,100572.00
2023-02-06T07:42:57.427Z,100566.00
2023-02-06T07:45:45.648Z,100566.00
2023-02-06T07:48:33.574Z,100566.00
2023-02-06T07:51:21.322Z,100557.00
2023-02-06T07:54:10.097Z,100551.00
2023-02-06T07:56:57.897Z,100560.00
2023-02-06T07:59:46.242Z,100562.00
2023-02-06T08:02:33.746Z,100564.00
2023-02-06T08:05:21.300Z,100558.00
2023-02-06T08:08:10.951Z,100570.00
2023-02-06T08:10:58.532Z,100576.00
2023-02-06T08:13:48.482Z,100575.00
2023-02-06T08:16:36.324Z,100572.00
2023-02-06T08:19:24.463Z,100575.00
2023-02-06T08:22:11.980Z,100573.00
2023-02-06T08:24:59.828Z,100590.00
2023-02-06T08:27:47.851Z,100593.00
2023-02-06T08:30:37.262Z,100575.00
2023-02-06T08:33:25.097Z,100577.00
2023-02-06T08:36:14.600Z,100576.00
2023-02-06T08:39:05.280Z,100578.00
2023-02-06T08:41:53.112Z,100572.00
2023-02-06T08:44:40.940Z,100571.00
2023-02-06T08:47:28.631Z,100578.00
2023-02-06T08:50:16.722Z,100580.00
2023-02-06T08:53:04.312Z,100578.00
2023-02-06T08:56:02.870Z,100575.00
2023-02-06T08:58:50.937Z,100581.00
2023-02-06T09:01:39.539Z,100583.00
2023-02-06T09:04:37.485Z,100572.00
2023-02-06T09:07:25.746Z,100576.00
2023-02-06T09:10:26.698Z,100580.00
2023-02-06T09:13:15.826Z,100587.00
2023-02-06T09:16:04.836Z,100575.00
2023-02-06T09:18:54.701Z,100588.00
2023-02-06T09:21:42.571Z,100589.00
2023-02-06T09:24:32.374Z,100583.00
2023-02-06T09:27:21.333Z,100586.00
2023-02-06T09:30:09.977Z,100574.00
2023-02-06T09:32:57.771Z,100597.00
2023-02-06T09:35:45.334Z,100592.00
2023-02-06T09:38:34.851Z,100601.00
2023-02-06T09:41:36.911Z,100591.00
2023-02-06T09:44:41.247Z,100590.00
2023-02-06T09:47:38.608Z,100596.00
2023-02-06T09:50:58.544Z,100588.00
2023-02-06T09:54:14.046Z,100566.00
2023-02-06T09:57:36.570Z,100571.00
2023-02-06T10:00:39.025Z,100569.00
2023-02-06T10:03:51.348Z,100552.00
2023-02-06T10:07:18.045Z,100563.00
2023-02-06T10:10:22.936Z,100561.00
2023-02-06T10:13:51.205Z,100548.00
2023-02-06T10:16:57.264Z,100548.00
2023-02-06T10:20:14.771Z,100544.00
2023-02-06T10:23:21.250Z,100542.00
2023-02-06T10:26:18.375Z,100536.00
2023-02-06T10:29:16.776Z,100521.00
2023-02-06T10:32:18.341Z,100521.00
2023-02-06T10:35:31.941Z,100520.00
2023-02-06T10:39:15.500Z,100520.00
2023-02-06T10:42:49.109Z,100497.00
2023-02-06T10:46:29.449Z,100492.00
2023-02-06T10:49:42.792Z,100488.00
2023-02-06T10:52:39.736Z,100489.00
2023-02-06T10:55:42.203Z,100487.00
2023-02-06T10:58:40.329Z,100481.00
2023-02-06T11:01:37.268Z,100473.00
2023-02-06T11:04:42.353Z,100475.00
2023-02-06T11:07:53.916Z,100465.00
2023-02-06T11:10:46.564Z,100464.00
2023-02-06T11:13:38.599Z,100451.00
2023-02-06T11:16:29.860Z,100447.00
2023-02-06T11:19:27.602Z,100441.00
2023-02-06T11:22:27.185Z,100439.00
2023-02-06T11:25:31.501Z,100429.00
2023-02-06T11:28:23.433Z,100433.00
2023-02-06T11:31:13.614Z,100410.00
2023-02-06T11:34:01.612Z,100413.00
2023-02-06T11:36:55.816Z,100410.00
2023-02-06T11:39:43.427Z,100414.00
2023-02-06T11:42:30.977Z,100407.00
2023-02-06T11:45:32.626Z,100422.00
2023-02-06T11:48:40.296Z,100411.00
2023-02-06T11:52:04.609Z,100411.00
2023-02-06T11:54:56.948Z,100406.00
2023-02-06T11:57:44.699Z,100412.00
2023-02-06T12:00:33.920Z,100409.00
2023-02-06T12:03:45.014Z,100409.00
2023-02-06T12:06:40.396Z,100401.00
2023-02-06T12:09:28.789Z,100392.00
2023-02-06T12:12:36.792Z,100390.00
2023-02-06T12:15:47.020Z,100387.00
2023-02-06T12:18:44.452Z,100377.00
2023-02-06T12:22:04.527Z,100371.00
2023-02-06T12:25:00.483Z,100358.00
2023-02-06T12:27:49.100Z,100356.00
2023-02-06T12:30:51.678Z,100351.00
2023-02-06T12:34:00.725Z,100344.00
2023-02-06T12:37:00.623Z,100346.00
2023-02-06T12:39:49.430Z,100333.00
2023-02-06T12:42:45.821Z,100339.00
2023-02-06T12:45:58.440Z,100339.00
2023-02-06T12:48:57.884Z,100339.00
2023-02-06T12:52:05.085Z,100332.00
2023-02-06T12:55:08.389Z,100338.00
2023-02-06T12:57:58.375Z,100323.00
2023-02-06T13:01:33.040Z,100330.00
2023-02-06T13:04:37.438Z,100315.00
2023-02-06T13:07:26.507Z,100322.00
2023-02-06T13:10:26.950Z,100314.00
2023-02-06T13:13:47.513Z,100319.00
2023-02-06T13:16:57.264Z,100320.00
2023-02-06T13:19:44.798Z,100322.00
2023-02-06T13:23:16.265Z,100317.00
2023-02-06T13:26:04.058Z,100310.00
2023-02-06T13:29:00.472Z,100312.00
2023-02-06T13:31:48.488Z,100311.00
2023-02-06T13:34:43.568Z,100303.00
2023-02-06T13:37:45.897Z,100302.00
2023-02-06T13:40:35.612Z,100300.00
2023-02-06T13:43:31.522Z,100305.00
2023-02-06T13:46:57.344Z,100305.00
2023-02-06T13:50:21.006Z,100301.00
2023-02-06T13:53:36.951Z,100296.00
2023-02-06T13:57:11.383Z,100288.00
2023-02-06T14:00:31.128Z,100290.00
2023-02-06T14:03:34.956Z,100278.00
2023-02-06T14:06:31.022Z,100279.00
2023-02-06T14:10:21.926Z,100279.00
2023-02-06T14:13:28.655Z,100285.00
2023-02-06T14:16:25.228Z,100285.00
2023-02-06T14:19:41.105Z,100292.00
2023-02-06T14:23:03.090Z,100293.00
2023-02-06T14:26:28.451Z,100303.00
2023-02-06T14:29:51.265Z,100296.00
2023-02-06T14:32:56.907Z,100299.00
2023-02-06T14:36:12.781Z,100317.00
2023-02-06T14:39:08.776Z,100317.00
2023-02-06T14:41:58.137Z,100309.00
2023-02-06T14:44:55.021Z,100321.00
2023-02-06T14:47:44.318Z,100321.00
2023-02-06T14:50:42.306Z,100323.00
2023-02-06T14:53:40.148Z,100325.00
2023-02-06T14:56:31.975Z,100330.00
2023-02-06T14:59:19.927Z,100336.00
2023-02-06T15:02:24.956Z,100335.00
2023-02-06T15:05:39.190Z,100323.00
2023-02-06T15:08:26.860Z,100336.00
2023-02-06T15:11:24.143Z,100331.00
2023-02-06T15:14:29.652Z,100324.00
2023-02-06T15:17:28.714Z,100332.00
2023-02-06T15:20:33.557Z,100324.00
2023-02-06T15:23:54.084Z,100331.00
2023-02-06T15:26:58.230Z,100330.00
2023-02-06T15:29:52.400Z,100331.00
2023-02-06T15:32:40.706Z,100324.00
2023-02-06T15:35:38.863Z,100321.00
2023-02-06T15:38:30.896Z,100331.00
2023-02-06T15:41:20.303Z,100334.00
2023-02-06T15:44:37.422Z,100335.00
2023-02-06T15:47:26.066Z,100342.00
2023-02-06T15:50:25.110Z,100348.00
2023-02-06T15:53:28.937Z,100348.00
2023-02-06T15:56:24.924Z,100350.00
2023-02-06T15:59:22.115Z,100349.00
2023-02-06T16:02:24.510Z,100355.00
2023-02-06T16:05:35.756Z,100355.00
2023-02-06T16:08:35.184Z,100354.00
2023-02-06T16:11:51.250Z,100362.00
2023-02-06T16:14:41.969Z,100369.00
2023-02-06T16:17:41.312Z,100359.00
2023-02-06T16:20:43.030Z,100356.00
2023-02-06T16:24:03.341Z,100364.00
2023-02-06T16:26:52.646Z,100376.00
2023-02-06T16:29:47.561Z,100383.00
2023-02-06T16:32:35.592Z,100391.00
2023-02-06T16:35:24.582Z,100389.00
2023-02-06T16:38:12.373Z,100398.00
2023-02-06T16:41:00.575Z,100399.00
2023-02-06T16:43:48.158Z,100409.00
2023-02-06T16:46:36.135Z,100413.00
2023-02-06T16:49:23.811Z,100420.00
2023-02-06T16:52:29.210Z,100417.00
2023-02-06T16:55:26.448Z,100424.00
2023-02-06T16:58:24.068Z,100427.00
2023-02-06T17:01:26.651Z,100433.00
2023-02-06T17:04:14.404Z,100437.00
2023-02-06T17:07:02.681Z,100434.00
2023-02-06T17:09:54.231Z,100447.00
2023-02-06T17:12:44.526Z,100466.00
2023-02-06T17:15:32.188Z,100464.00
2023-02-06T17:18:22.285Z,100470.00
2023-02-06T17:21:15.774Z,100467.00
2023-02-06T17:24:03.510Z,100470.00
2023-02-06T17:26:51.130Z,100479.00
2023-02-06T17:29:38.851Z,100475.00
2023-02-06T17:32:26.400Z,100468.00
2023-02-06T17:35:14.870Z,100476.00
2023-02-06T17:38:03.238Z,100479.00
2023-02-06T17:40:51.188Z,100478.00
2023-02-06T17:43:39.187Z,100478.00
2023-02-06T17:46:26.920Z,100484.00
2023-02-06T17:49:16.780Z,100479.00
2023-02-06T17:52:04.715Z,100482.00
2023-02-06T17:54:52.776Z,100500.00
2023-02-06T17:57:40.937Z,100494.00
2023-02-06T18:00:28.771Z,100498.00
2023-02-06T18:03:18.490Z,100485.00
2023-02-06T18:06:06.696Z,100488.00
2023-02-06T18:08:54.400Z,100489.00
2023-02-06T18:11:42.689Z,100489.00
2023-02-06T18:14:30.521Z,100496.00
2023-02-06T18:17:19.683Z,100497.00
2023-02-06T18:20:08.711Z,100489.00
2023-02-06T18:22:56.642Z,100504.00
2023-02-06T18:25:44.630Z,100498.00
2023-02-06T18:28:33.910Z,100506.00
2023-02-06T18:31:28.853Z,100509.00
2023-02-06T18:34:17.225Z,100514.00
2023-02-06T18:37:07.921Z,100505.00
2023-02-06T18:39:55.865Z,100513.00
2023-02-06T18:42:54.419Z,100507.00
2023-02-06T18:45:43.011Z,100511.00
2023-02-06T18:48:30.536Z,100507.00
2023-02-06T18:51:18.207Z,100505.00
2023-02-06T18:54:08.009Z,100510.00
2023-02-06T18:56:58.705Z,100518.00
2023-02-06T18:59:46.399Z,100517.00
2023-02-06T19:02:34.057Z,100518.00
2023-02-06T19:05:21.789Z,100536.00
2023-02-06T19:08:09.519Z,100533.00
2023-02-06T19:10:57.663Z,100535.00
2023-02-06T19:13:45.370Z,100542.00
2023-02-06T19:16:34.336Z,100537.00
2023-02-06T19:19:22.250Z,100532.00
2023-02-06T19:22:10.136Z,100534.00
2023-02-06T19:24:57.946Z,100526.00
2023-02-06T19:27:45.716Z,100529.00
2023-02-06T19:30:33.320Z,100538.00
2023-02-06T19:33:21.272Z,100540.00
2023-02-06T19:36:14.402Z,100532.00
2023-02-06T19:39:07.348Z,100528.00
2023-02-06T19:41:55.040Z,100533.00
2023-02-06T19:44:43.848Z,100535.00
2023-02-06T19:47:31.496Z,100540.00
2023-02-06T19:50:19.510Z,100542.00
2023-02-06T19:53:07.082Z,100549.00
2023-02-06T19:55:55.285Z,100554.00
2023-02-06T19:58:42.859Z,100554.00
2023-02-06T20:01:32.060Z,100552.00
2023-02-06T20:04:23.409Z,100556.00
2023-02-06T20:07:10.990Z,100557.00
2023-02-06T20:09:59.029Z,100574.00
2023-02-06T20:12:47.135Z,100576.00
2023-02-06T20:15:40.766Z,100580.00
2023-02-06T20:18:28.956Z,100576.00
2023-02-06T20:21:31.420Z,100586.00
2023-02-06T20:24:24.609Z,100586.00
2023-02-06T20:27:13.428Z,100572.00
2023-02-06T20:30:01.361Z,100567.00
2023-02-06T20:32:49.260Z,100554.00
2023-02-06T20:35:44.686Z,100546.00
2023-02-06T20:38:33.107Z,100544.00
2023-02-06T20:41:28.644Z,100532.00
2023-02-06T20:44:17.260Z,100544.00
2023-02-06T20:47:05.197Z,100548.00
2023-02-06T20:49:52.961Z,100547.00
2023-02-06T20:52:40.950Z,100547.00
2023-02-06T20:55:29.341Z,100530.00
2023-02-06T20:58:17.749Z,100549.00
2023-02-06T21:01:24.738Z,100553.00
2023-02-06T21:04:16.896Z,100550.00
2023-02-06T21:07:04.712Z,100574.00
2023-02-06T21:09:52.547Z,100555.00
2023-02-06T21:12:40.037Z,100544.00
2023-02-06T21:15:27.971Z,100547.00
2023-02-06T21:18:15.970Z,100540.00
2023-02-06T21:21:13.893Z,100547.00
2023-02-06T21:24:01.933Z,100538.00
2023-02-06T21:26:49.910Z,100545.00
2023-02-06T21:29:37.917Z,100554.00
2023-02-06T21:32:25.975Z,100557.00
2023-02-06T21:35:13.580Z,100558.00
2023-02-06T21:38:01.584Z,100556.00
2023-02-06T21:40:49.531Z,100549.00
2023-02-06T21:43:38.220Z,100550.00
2023-02-06T21:46:26.714Z,100547.00
2023-02-06T21:49:14.616Z,100554.00
2023-02-06T21:52:02.205Z,100568.00
2023-02-06T21:54:50.137Z,100568.00
2023-02-06T21:57:38.233Z,100562.00
2023-02-06T22:00:26.217Z,100580.00
2023-02-06T22:03:15.292Z,100581.00
2023-02-06T22:06:12.147Z,100586.00
2023-02-06T22:09:05.557Z,100588.00
2023-02-06T22:11:54.196Z,100588.00
2023-02-06T22:14:42.222Z,100587.00
2023-02-06T22:17:30.545Z,100589.00
2023-02-06T22:20:18.862Z,100604.00
2023-02-06T22:23:06.675Z,100592.00
2023-02-06T22:25:54.485Z,100599.00
2023-02-06T22:28:43.626Z,100608.00
2023-02-06T22:31:35.510Z,100603.00
2023-02-06T22:34:23.663Z,100618.00
2023-02-06T22:37:11.224Z,100623.00
2023-02-06T22:39:59.320Z,100619.00
2023-02-06T22:42:46.845Z,100632.00
2023-02-06T22:45:36.146Z,100645.00
2023-02-06T22:48:25.253Z,100642.00
2023-02-06T22:51:12.859Z,100648.00
2023-02-06T22:54:01.012Z,100648.00
2023-02-06T22:56:48.610Z,100659.00
2023-02-06T22:59:36.312Z,100655.00
2023-02-06T23:02:24.711Z,100656.00
2023-02-06T23:05:12.221Z,100655.00
2023-02-06T23:08:00.317Z,100653.00
2023-02-06T23:10:48.781Z,100658.00
2023-02-06T23:13:37.250Z,100662.00
2023-02-06T23:16:25.043Z,100661.00
2023-02-06T23:19:14.873Z,100662.00
2023-02-06T23:22:02.857Z,100680.00
2023-02-06T23:24:51.837Z,100669.00
2023-02-06T23:27:39.497Z,100683.00
2023-02-06T23:30:27.523Z,100678.00
2023-02-06T23:33:15.910Z,100686.00
2023-02-06T23:36:13.744Z,100686.00
2023-02-06T23:39:04.247Z,100682.00
2023-02-06T23:41:51.993Z,100679.00
2023-02-06T23:44:39.990Z,100670.00
2023-02-06T23:47:27.977Z,100677.00
2023-02-06T23:50:15.831Z,100683.00
2023-02-06T23:53:03.563Z,100685.00
2023-02-06T23:55:51.658Z,100688.00
2023-02-06T23:58:40.304Z,100692.00
